createdAt,value
2023-04-04T00:00:14.781Z,12.78
2023-04-04T00:05:17.372Z,12.58
2023-04-04T00:10:19.688Z,12.56
2023-04-04T00:15:22.744Z,12.28
2023-04-04T00:20:25.271Z,12.45
2023-04-04T00:25:27.457Z,12.43
2023-04-04T00:30:30.499Z,12.39
2023-04-04T00:35:33.279Z,12.30
2023-04-04T00:40:48.200Z,12.04
2023-04-04T00:45:52.596Z,12.02
2023-04-04T00:50:54.806Z,11.91
2023-04-04T00:55:56.934Z,12.00
2023-04-04T01:01:00.936Z,11.70
2023-04-04T01:06:03.570Z,11.85
2023-04-04T01:11:06.770Z,11.90
2023-04-04T01:16:09.461Z,11.85
2023-04-04T01:21:13.720Z,11.94
2023-04-04T01:26:15.953Z,11.95
2023-04-04T01:31:23.317Z,11.89
2023-04-04T01:36:43.447Z,11.87
2023-04-04T01:41:48.990Z,11.94
2023-04-04T01:46:57.528Z,11.95
2023-04-04T01:52:00.013Z,12.13
2023-04-04T01:57:02.256Z,11.96
2023-04-04T02:02:04.428Z,11.72
2023-04-04T02:07:07.212Z,11.66
2023-04-04T02:12:09.421Z,11.43
2023-04-04T02:17:11.876Z,10.30
2023-04-04T02:22:14.012Z,10.13
2023-04-04T02:27:16.103Z,10.27
2023-04-04T02:32:18.716Z,10.34
2023-04-04T02:37:20.890Z,10.38
2023-04-04T02:42:22.973Z,9.94
2023-04-04T02:47:25.541Z,9.75
2023-04-04T02:52:27.679Z,9.38
2023-04-04T02:57:29.810Z,9.80
2023-04-04T03:02:32.344Z,10.39
2023-04-04T03:07:34.951Z,10.43
2023-04-04T03:12:37.048Z,9.86
2023-04-04T03:17:40.861Z,9.61
2023-04-04T03:22:43.516Z,10.03
2023-04-04T03:27:45.701Z,10.39
2023-04-04T03:32:47.989Z,10.70
2023-04-04T03:37:50.155Z,11.02
2023-04-04T03:42:52.559Z,10.93
2023-04-04T03:47:54.738Z,11.46
2023-04-04T03:52:58.667Z,11.68
2023-04-04T03:58:01.036Z,11.51
2023-04-04T04:03:03.548Z,11.13
2023-04-04T04:08:06.421Z,11.02
2023-04-04T04:13:08.910Z,10.91
2023-04-04T04:18:11.292Z,10.69
2023-04-04T04:23:13.468Z,11.12
2023-04-04T04:28:15.971Z,11.29
2023-04-04T04:33:18.697Z,11.58
2023-04-04T04:38:20.940Z,11.66
2023-04-04T04:43:23.475Z,11.86
2023-04-04T04:48:25.627Z,11.18
2023-04-04T04:53:28.060Z,10.93
2023-04-04T04:58:30.221Z,11.10
2023-04-04T05:03:32.433Z,10.46
2023-04-04T05:08:34.576Z,10.87
2023-04-04T05:13:37.298Z,10.76
2023-04-04T05:18:39.509Z,10.48
2023-04-04T05:23:42.119Z,10.69
2023-04-04T05:28:44.289Z,10.59
2023-04-04T05:33:46.409Z,10.88
2023-04-04T05:38:48.674Z,11.16
2023-04-04T05:43:51.217Z,11.23
2023-04-04T05:48:53.457Z,11.50
2023-04-04T05:53:55.635Z,11.68
2023-04-04T05:58:58.042Z,11.72
2023-04-04T06:04:01.096Z,11.89
2023-04-04T06:09:03.885Z,12.06
2023-04-04T06:14:06.416Z,12.05
2023-04-04T06:19:08.678Z,12.13
2023-04-04T06:24:11.238Z,11.94
2023-04-04T06:29:13.812Z,11.94
2023-04-04T06:34:16.622Z,12.18
2023-04-04T06:39:20.936Z,12.17
2023-04-04T06:44:23.226Z,12.05
2023-04-04T06:49:25.629Z,12.12
2023-04-04T06:54:28.167Z,12.10
2023-04-04T06:59:30.484Z,12.07
2023-04-04T07:04:35.219Z,12.09
2023-04-04T07:09:37.556Z,12.09
2023-04-04T07:14:39.846Z,12.15
2023-04-04T07:19:41.977Z,12.33
2023-04-04T07:24:44.312Z,12.04
2023-04-04T07:29:46.499Z,12.29
2023-04-04T07:34:49.886Z,12.63
2023-04-04T07:39:52.331Z,12.67
2023-04-04T07:44:54.505Z,12.88
2023-04-04T07:49:56.830Z,12.77
2023-04-04T07:55:00.748Z,13.02
2023-04-04T08:00:04.634Z,13.10
2023-04-04T08:05:07.538Z,13.19
2023-04-04T08:10:10.290Z,13.05
2023-04-04T08:15:13.031Z,13.13
2023-04-04T08:20:16.103Z,13.13
2023-04-04T08:25:19.042Z,13.39
2023-04-04T08:30:21.276Z,13.24
2023-04-04T08:35:23.793Z,13.41
2023-04-04T08:40:26.017Z,13.33
2023-04-04T08:45:31.184Z,12.93
2023-04-04T08:50:35.509Z,13.23
2023-04-04T08:55:38.370Z,13.95
2023-04-04T09:00:42.967Z,14.05
2023-04-04T09:05:45.476Z,14.43
2023-04-04T09:10:49.618Z,15.00
2023-04-04T09:15:56.659Z,15.38
2023-04-04T09:20:59.273Z,15.31
2023-04-04T09:26:04.365Z,14.97
2023-04-04T09:31:10.367Z,15.09
2023-04-04T09:36:13.878Z,15.25
2023-04-04T09:41:17.995Z,15.38
2023-04-04T09:46:21.600Z,15.57
2023-04-04T09:51:23.728Z,15.72
2023-04-04T09:56:27.858Z,16.03
2023-04-04T10:01:30.409Z,15.98
2023-04-04T10:06:32.902Z,16.34
2023-04-04T10:11:36.963Z,16.34
2023-04-04T10:16:46.005Z,16.31
2023-04-04T10:21:48.491Z,16.40
2023-04-04T10:26:50.822Z,16.48
2023-04-04T10:32:03.059Z,17.08
2023-04-04T10:37:30.024Z,17.28
2023-04-04T10:42:40.668Z,17.25
2023-04-04T10:47:44.406Z,16.84
2023-04-04T10:52:46.838Z,17.28
2023-04-04T10:57:55.590Z,17.29
2023-04-04T11:03:00.083Z,17.32
2023-04-04T11:08:08.531Z,17.57
2023-04-04T11:13:16.673Z,17.70
2023-04-04T11:18:33.230Z,17.63
2023-04-04T11:23:59.411Z,18.08
2023-04-04T11:29:04.515Z,18.45
2023-04-04T11:39:51.073Z,18.77
2023-04-04T11:44:56.032Z,19.00
2023-04-04T11:50:01.315Z,18.74
2023-04-04T11:55:14.326Z,19.08
2023-04-04T12:00:35.221Z,19.49
2023-04-04T12:05:39.235Z,19.82
2023-04-04T12:10:41.808Z,19.34
2023-04-04T12:15:44.478Z,19.18
2023-04-04T12:20:49.510Z,19.49
2023-04-04T12:25:55.218Z,19.64
2023-04-04T12:30:57.685Z,19.50
2023-04-04T12:36:00.466Z,19.99
2023-04-04T12:41:03.390Z,20.30
2023-04-04T12:46:09.243Z,20.20
2023-04-04T12:51:11.710Z,20.53
2023-04-04T12:56:14.524Z,20.35
2023-04-04T13:01:19.895Z,20.76
2023-04-04T13:06:22.846Z,20.99
2023-04-04T13:11:25.919Z,21.66
2023-04-04T13:16:37.405Z,21.51
2023-04-04T13:21:40.401Z,21.42
2023-04-04T13:26:42.651Z,21.46
2023-04-04T13:31:44.991Z,20.51
2023-04-04T13:36:47.196Z,21.05
2023-04-04T13:41:50.662Z,21.60
2023-04-04T13:46:52.837Z,21.59
2023-04-04T13:51:55.266Z,21.70
2023-04-04T13:56:57.674Z,20.99
2023-04-04T14:01:59.985Z,20.40
2023-04-04T14:07:02.098Z,21.10
2023-04-04T14:12:04.344Z,21.38
2023-04-04T14:17:06.705Z,20.66
2023-04-04T14:22:08.890Z,20.69
2023-04-04T14:27:11.547Z,20.83
2023-04-04T14:32:13.724Z,21.07
2023-04-04T14:37:15.825Z,20.81
2023-04-04T14:42:17.926Z,20.70
2023-04-04T14:47:20.021Z,19.68
2023-04-04T14:52:22.193Z,19.21
2023-04-04T14:57:24.565Z,20.24
2023-04-04T15:02:26.738Z,21.77
2023-04-04T15:07:28.896Z,23.21
2023-04-04T15:12:31.112Z,22.53
2023-04-04T15:17:33.240Z,22.08
2023-04-04T15:22:35.555Z,21.35
2023-04-04T15:27:37.737Z,20.91
2023-04-04T15:32:39.989Z,20.14
2023-04-04T15:37:42.212Z,19.74
2023-04-04T15:42:45.278Z,19.55
2023-04-04T15:47:47.570Z,19.12
2023-04-04T15:52:49.833Z,19.09
2023-04-04T15:57:56.303Z,18.74
2023-04-04T16:02:59.806Z,17.94
2023-04-04T16:08:02.544Z,17.91
2023-04-04T16:13:04.880Z,17.76
2023-04-04T16:18:07.565Z,17.84
2023-04-04T16:23:10.169Z,17.43
2023-04-04T16:28:41.335Z,16.70
2023-04-04T16:33:59.074Z,16.43
2023-04-04T16:39:02.009Z,16.43
2023-04-04T16:44:06.734Z,15.99
2023-04-04T16:49:10.501Z,15.84
2023-04-04T16:59:49.844Z,15.98
2023-04-04T17:04:52.859Z,16.35
2023-04-04T17:09:55.165Z,15.93
2023-04-04T17:14:57.893Z,16.26
2023-04-04T17:20:06.037Z,16.35
2023-04-04T17:25:09.240Z,16.36
2023-04-04T17:30:12.286Z,16.22
2023-04-04T17:35:18.017Z,15.52
2023-04-04T17:40:20.297Z,16.28
2023-04-04T17:45:23.146Z,15.82
2023-04-04T17:50:26.569Z,15.60
2023-04-04T17:55:29.679Z,15.15
2023-04-04T18:00:32.315Z,15.55
2023-04-04T18:05:34.690Z,15.04
2023-04-04T18:10:37.138Z,15.04
2023-04-04T18:15:39.523Z,15.50
2023-04-04T18:20:42.034Z,15.61
2023-04-04T18:25:44.488Z,15.03
2023-04-04T18:30:46.816Z,15.38
2023-04-04T18:35:49.036Z,15.81
2023-04-04T18:40:53.066Z,15.40
2023-04-04T18:45:55.555Z,15.62
2023-04-04T18:50:57.702Z,15.80
2023-04-04T18:55:59.989Z,15.58
2023-04-04T19:01:04.048Z,15.50
2023-04-04T19:06:07.945Z,15.67
2023-04-04T19:11:11.528Z,15.50
2023-04-04T19:16:13.953Z,15.30
2023-04-04T19:21:16.558Z,14.87
2023-04-04T19:26:18.922Z,15.41
2023-04-04T19:31:22.826Z,15.40
2023-04-04T19:36:25.190Z,15.32
2023-04-04T19:41:38.276Z,15.02
2023-04-04T19:46:40.712Z,14.97
2023-04-04T19:51:54.724Z,14.39
2023-04-04T19:57:06.836Z,14.56
2023-04-04T20:02:39.400Z,14.52
2023-04-04T20:07:41.799Z,14.99
2023-04-04T20:12:44.013Z,14.45
2023-04-04T20:17:46.492Z,14.86
2023-04-04T20:22:48.711Z,14.48
2023-04-04T20:27:51.195Z,14.85
2023-04-04T20:32:53.622Z,14.97
2023-04-04T20:37:55.982Z,13.99
2023-04-04T20:42:58.713Z,13.49
2023-04-04T20:48:05.029Z,13.60
2023-04-04T20:53:13.961Z,14.50
2023-04-04T20:58:31.608Z,14.30
2023-04-04T21:03:36.827Z,14.27
2023-04-04T21:08:50.661Z,13.77
2023-04-04T21:13:52.865Z,13.96
2023-04-04T21:18:59.069Z,13.93
2023-04-04T21:24:01.927Z,13.66
2023-04-04T21:29:22.943Z,13.66
2023-04-04T21:34:27.782Z,13.69
2023-04-04T21:39:31.655Z,12.82
2023-04-04T21:44:34.012Z,13.48
2023-04-04T21:49:36.277Z,12.94
2023-04-04T21:54:38.460Z,12.66
2023-04-04T21:59:40.720Z,12.57
2023-04-04T22:04:42.991Z,12.91
2023-04-04T22:09:46.748Z,13.04
2023-04-04T22:14:50.952Z,12.81
2023-04-04T22:20:08.534Z,12.73
2023-04-04T22:25:11.066Z,12.54
2023-04-04T22:30:13.915Z,12.87
2023-04-04T22:35:17.384Z,12.60
2023-04-04T22:45:24.326Z,12.01
2023-04-04T22:50:27.146Z,12.19
2023-04-04T22:55:31.485Z,12.57
2023-04-04T23:00:34.197Z,12.54
2023-04-04T23:05:36.599Z,12.62
2023-04-04T23:10:39.160Z,12.19
2023-04-04T23:15:41.838Z,12.14
2023-04-04T23:20:44.400Z,12.10
2023-04-04T23:25:46.736Z,12.16
2023-04-04T23:30:49.227Z,12.53
2023-04-04T23:35:51.731Z,12.26
2023-04-04T23:40:55.321Z,12.32
2023-04-04T23:45:58.026Z,12.29
2023-04-04T23:51:02.053Z,11.88
2023-04-04T23:56:04.393Z,11.76
